Time;durP1;ratioP1;P1;durP2;ratioP2;P2;SDS_P1;SDS_P2;PMS_P1;PMS_P2;Temp;Humidity;BMP_temperature;BMP_pressure;BME280_temperature;BME280_humidity;BME280_pressure;Samples;Min_cycle;Max_cycle;Signal;HPM_P1;HPM_P2
2023/03/28 00:00:58;;;;;;;;;;;1.40;99.90;;;;;;5056437;28;19905;-74
2023/03/28 00:03:26;;;;;;;;;;;1.40;99.90;;;;;;5037952;28;19908;-74
2023/03/28 00:05:55;;;;;;;;;;;1.50;99.90;;;;;;5055963;28;20292;-74
2023/03/28 00:08:21;;;;;;;;;;;1.30;99.90;;;;;;5038105;28;19904;-74
2023/03/28 00:10:46;;;;;;;;;;;1.20;99.90;;;;;;5056212;28;19931;-74
2023/03/28 00:13:12;;;;;;;;;;;1.20;99.90;;;;;;5056072;28;19995;-74
2023/03/28 00:15:39;;;;;;;;;;;1.20;99.90;;;;;;5055812;28;19905;-74
2023/03/28 00:18:04;;;;;;;;;;;1.20;99.90;;;;;;5056197;28;19999;-74
2023/03/28 00:20:30;;;;;;;;;;;1.20;99.90;;;;;;5055861;28;19959;-74
2023/03/28 00:22:56;;;;;;;;;;;1.10;99.90;;;;;;5056137;28;19913;-74
2023/03/28 00:25:22;;;;;;;;;;;1.10;99.90;;;;;;5055325;28;19984;-74
2023/03/28 00:27:47;;;;;;;;;;;1.00;99.90;;;;;;5056061;28;19912;-74
2023/03/28 00:30:13;;;;;;;;;;;0.90;99.90;;;;;;5056605;28;20299;-74
2023/03/28 00:32:39;;;;;;;;;;;1.00;99.90;;;;;;5037660;28;20015;-74
2023/03/28 00:35:05;;;;;;;;;;;0.90;99.90;;;;;;5037794;28;19996;-73
2023/03/28 00:37:30;;;;;;;;;;;0.90;99.90;;;;;;5037693;28;19966;-74
2023/03/28 00:39:56;;;;;;;;;;;1.00;99.90;;;;;;5055731;28;19970;-74
2023/03/28 00:42:22;;;;;;;;;;;0.90;99.90;;;;;;5055545;28;19914;-74
2023/03/28 00:44:48;;;;;;;;;;;0.80;99.90;;;;;;5037217;28;20279;-74
2023/03/28 00:47:20;;;;;;;;;;;0.80;99.90;;;;;;5037167;28;19999;-74
2023/03/28 00:49:48;;;;;;;;;;;0.80;99.90;;;;;;5037049;28;20125;-74
2023/03/28 00:52:15;;;;;;;;;;;1.80;99.90;;;;;;5036953;28;19905;-74
2023/03/28 00:54:40;;;;;;;;;;;0.80;99.90;;;;;;5036968;28;19904;-74
2023/03/28 00:57:07;;;;;;;;;;;0.70;99.90;;;;;;5054624;28;19905;-74
2023/03/28 00:59:33;;;;;;;;;;;0.90;99.90;;;;;;5054249;28;20356;-74
2023/03/28 01:01:59;;;;;;;;;;;0.70;99.90;;;;;;5054599;28;19977;-74
2023/03/28 01:04:29;;;;;;;;;;;0.70;99.90;;;;;;5036721;28;19999;-74
2023/03/28 01:06:56;;;;;;;;;;;0.70;99.90;;;;;;5054719;28;19911;-74
2023/03/28 01:09:22;;;;;;;;;;;0.70;99.90;;;;;;5054514;28;20008;-73
2023/03/28 01:11:48;;;;;;;;;;;0.70;99.90;;;;;;5036702;28;19905;-74
2023/03/28 01:14:18;;;;;;;;;;;0.70;99.90;;;;;;5036578;28;19911;-74
2023/03/28 01:16:46;;;;;;;;;;;0.80;99.90;;;;;;5054361;28;20352;-74
2023/03/28 01:19:30;;;;;;;;;;;0.80;99.90;;;;;;5054896;28;19912;-73
2023/03/28 01:22:05;;;;;;;;;;;0.80;99.90;;;;;;5036415;28;19912;-74
2023/03/28 01:24:49;;;;;;;;;;;0.90;99.90;;;;;;5054279;28;19911;-74
2023/03/28 01:27:21;;;;;;;;;;;0.90;99.90;;;;;;5054320;28;20368;-74
2023/03/28 01:30:16;;;;;;;;;;;0.80;99.90;;;;;;5054120;28;19912;-74
2023/03/28 01:32:45;;;;;;;;;;;0.80;99.90;;;;;;5054245;28;19908;-74
2023/03/28 01:35:10;;;;;;;;;;;0.80;99.90;;;;;;5053978;28;20364;-74
2023/03/28 01:37:39;;;;;;;;;;;0.80;99.90;;;;;;5037164;28;19911;-74
2023/03/28 01:40:11;;;;;;;;;;;0.70;99.90;;;;;;5036024;28;19995;-74
2023/03/28 01:42:55;;;;;;;;;;;0.70;99.90;;;;;;5036071;28;19915;-75
2023/03/28 01:45:24;;;;;;;;;;;0.70;99.90;;;;;;5035884;28;19905;-74
2023/03/28 01:47:59;;;;;;;;;;;0.70;99.90;;;;;;5035740;28;19948;-75
2023/03/28 01:50:28;;;;;;;;;;;0.60;99.90;;;;;;5035945;28;19905;-74
2023/03/28 01:53:02;;;;;;;;;;;0.60;99.90;;;;;;5035766;28;20014;-74
2023/03/28 01:55:47;;;;;;;;;;;0.50;99.90;;;;;;5053848;28;19999;-74
2023/03/28 01:58:16;;;;;;;;;;;0.50;99.90;;;;;;5035916;28;19912;-74
2023/03/28 02:00:43;;;;;;;;;;;0.40;99.90;;;;;;5054345;28;19974;-74
2023/03/28 02:03:12;;;;;;;;;;;0.40;99.90;;;;;;5035669;28;19908;-74
2023/03/28 02:05:39;;;;;;;;;;;0.40;99.90;;;;;;5053618;28;19935;-74
2023/03/28 02:08:09;;;;;;;;;;;0.40;99.90;;;;;;5035779;28;19905;-74
2023/03/28 02:10:37;;;;;;;;;;;0.30;99.90;;;;;;5035573;28;20004;-74
2023/03/28 02:13:05;;;;;;;;;;;0.30;99.90;;;;;;5052854;28;19944;-73
2023/03/28 02:15:31;;;;;;;;;;;0.30;99.90;;;;;;5054106;28;19908;-73
2023/03/28 02:18:00;;;;;;;;;;;0.30;99.90;;;;;;5053676;28;19911;-73
2023/03/28 02:20:27;;;;;;;;;;;0.30;99.90;;;;;;5053563;28;19958;-74
2023/03/28 02:22:57;;;;;;;;;;;0.20;99.90;;;;;;5053396;28;19909;-74
2023/03/28 02:25:23;;;;;;;;;;;0.20;99.90;;;;;;5053432;28;19912;-74
2023/03/28 02:27:51;;;;;;;;;;;1.30;99.90;;;;;;5053327;28;20364;-74
2023/03/28 02:30:18;;;;;;;;;;;0.10;99.90;;;;;;5053311;28;19904;-74
2023/03/28 02:32:49;;;;;;;;;;;0.10;99.90;;;;;;5053443;28;19905;-75
2023/03/28 02:35:16;;;;;;;;;;;0.10;99.90;;;;;;5035600;28;19940;-74
2023/03/28 02:37:41;;;;;;;;;;;0.10;99.90;;;;;;5035793;28;19905;-75
2023/03/28 02:40:25;;;;;;;;;;;0.10;99.90;;;;;;5035465;28;19912;-75
2023/03/28 02:43:09;;;;;;;;;;;0.10;99.90;;;;;;5053250;28;19909;-75
2023/03/28 02:45:53;;;;;;;;;;;0.10;99.90;;;;;;5035414;28;19904;-75
2023/03/28 02:48:25;;;;;;;;;;;0.10;99.90;;;;;;5053358;28;19980;-75
2023/03/28 02:51:02;;;;;;;;;;;0.20;99.90;;;;;;5053611;28;19904;-75
2023/03/28 02:53:38;;;;;;;;;;;0.20;99.90;;;;;;5035622;28;19904;-74
2023/03/28 02:56:30;;;;;;;;;;;0.20;99.90;;;;;;5035572;28;20382;-74
2023/03/28 02:58:58;;;;;;;;;;;0.30;99.90;;;;;;5033609;28;19908;-74
2023/03/28 03:01:27;;;;;;;;;;;0.40;99.90;;;;;;5035530;28;20007;-75
2023/03/28 03:03:53;;;;;;;;;;;0.40;99.90;;;;;;5035618;28;19991;-74
2023/03/28 03:06:19;;;;;;;;;;;0.50;99.90;;;;;;5053059;28;20009;-75
2023/03/28 03:08:45;;;;;;;;;;;0.50;99.90;;;;;;5035304;28;20054;-75
2023/03/28 03:11:10;;;;;;;;;;;0.50;99.90;;;;;;5035467;28;20439;-75
2023/03/28 03:13:36;;;;;;;;;;;0.50;99.90;;;;;;5035479;28;19916;-75
2023/03/28 03:16:02;;;;;;;;;;;0.50;99.90;;;;;;5035352;28;20376;-75
2023/03/28 03:18:27;;;;;;;;;;;0.50;99.90;;;;;;5053179;28;19904;-75
2023/03/28 03:20:53;;;;;;;;;;;0.50;99.90;;;;;;5053287;28;20268;-75
2023/03/28 03:23:19;;;;;;;;;;;0.40;99.90;;;;;;5036583;28;19909;-75
2023/03/28 03:25:45;;;;;;;;;;;0.40;99.90;;;;;;5038791;28;19912;-75
2023/03/28 03:28:11;;;;;;;;;;;0.40;99.90;;;;;;5039357;28;19911;-74
2023/03/28 03:30:37;;;;;;;;;;;0.40;99.90;;;;;;5056696;28;19905;-74
2023/03/28 03:33:04;;;;;;;;;;;0.30;99.90;;;;;;5056787;28;20050;-75
2023/03/28 03:35:32;;;;;;;;;;;0.20;99.90;;;;;;5038799;28;19954;-74
2023/03/28 03:37:58;;;;;;;;;;;0.20;99.90;;;;;;5056380;28;19905;-74
2023/03/28 03:40:24;;;;;;;;;;;0.10;99.90;;;;;;5038578;28;19912;-74
2023/03/28 03:42:50;;;;;;;;;;;0.10;99.90;;;;;;5056851;28;19909;-74
2023/03/28 03:45:15;;;;;;;;;;;0.10;99.90;;;;;;5039271;28;19908;-75
2023/03/28 03:47:41;;;;;;;;;;;0.10;99.90;;;;;;5056735;28;19905;-74
2023/03/28 03:50:08;;;;;;;;;;;0.10;99.90;;;;;;5056712;28;20420;-75
2023/03/28 03:52:33;;;;;;;;;;;0.10;99.90;;;;;;5057467;28;19927;-75
2023/03/28 03:54:59;;;;;;;;;;;0.70;99.90;;;;;;5056705;28;19905;-75
2023/03/28 03:57:24;;;;;;;;;;;0.00;99.90;;;;;;5038415;28;19911;-75
2023/03/28 03:59:51;;;;;;;;;;;0.00;99.90;;;;;;5056691;28;20356;-74
2023/03/28 04:02:16;;;;;;;;;;;0.00;99.90;;;;;;5038682;28;20329;-75
2023/03/28 04:04:44;;;;;;;;;;;0.00;99.90;;;;;;5038485;28;20008;-75
2023/03/28 04:07:13;;;;;;;;;;;-0.10;99.90;;;;;;5038118;28;19920;-75
2023/03/28 04:09:38;;;;;;;;;;;-0.10;99.90;;;;;;5056009;28;19916;-75
2023/03/28 04:12:04;;;;;;;;;;;-0.10;99.90;;;;;;5056690;28;19904;-75
2023/03/28 04:14:30;;;;;;;;;;;-0.10;99.90;;;;;;5056331;28;19909;-74
2023/03/28 04:16:56;;;;;;;;;;;-0.10;99.90;;;;;;5038394;28;19994;-75
2023/03/28 04:19:23;;;;;;;;;;;-0.10;99.90;;;;;;5056144;28;19955;-75
2023/03/28 04:21:51;;;;;;;;;;;-0.10;99.90;;;;;;5056127;28;20387;-75
2023/03/28 04:24:19;;;;;;;;;;;-0.10;99.90;;;;;;5056194;28;20367;-74
2023/03/28 04:26:48;;;;;;;;;;;-0.10;99.90;;;;;;5037930;28;19904;-74
2023/03/28 04:29:15;;;;;;;;;;;-0.10;99.90;;;;;;5037996;28;19968;-75
2023/03/28 04:31:48;;;;;;;;;;;-0.10;99.90;;;;;;5055925;28;19988;-75
2023/03/28 04:34:18;;;;;;;;;;;-0.10;99.90;;;;;;5054790;28;19904;-75
2023/03/28 04:36:45;;;;;;;;;;;-0.20;99.90;;;;;;5055284;28;19929;-74
2023/03/28 04:39:12;;;;;;;;;;;-0.20;99.90;;;;;;5037805;28;19905;-74
2023/03/28 04:41:37;;;;;;;;;;;-0.30;99.90;;;;;;5038056;28;19916;-75
2023/03/28 04:44:03;;;;;;;;;;;-0.30;99.90;;;;;;5038030;28;20287;-74
2023/03/28 04:46:29;;;;;;;;;;;-0.30;99.90;;;;;;5037741;28;20260;-75
2023/03/28 04:48:54;;;;;;;;;;;-0.30;99.90;;;;;;5056145;28;19947;-74
2023/03/28 04:51:20;;;;;;;;;;;-0.30;99.90;;;;;;5038175;28;19905;-74
2023/03/28 04:53:46;;;;;;;;;;;-0.30;99.90;;;;;;5055800;28;19909;-74
2023/03/28 04:56:12;;;;;;;;;;;-0.30;99.90;;;;;;5055349;28;19966;-74
2023/03/28 04:58:39;;;;;;;;;;;-0.40;99.90;;;;;;5037781;28;20007;-74
2023/03/28 05:01:04;;;;;;;;;;;-0.40;99.90;;;;;;5037645;28;19908;-73
2023/03/28 05:03:30;;;;;;;;;;;-0.40;99.90;;;;;;5055838;28;19909;-74
2023/03/28 05:05:55;;;;;;;;;;;-0.50;99.90;;;;;;5055161;28;19962;-75
2023/03/28 05:08:23;;;;;;;;;;;-0.50;99.90;;;;;;5037409;28;19940;-75
2023/03/28 05:10:49;;;;;;;;;;;-0.50;99.90;;;;;;5037714;28;19905;-74
2023/03/28 05:13:15;;;;;;;;;;;-0.50;99.90;;;;;;5055180;28;19940;-74
2023/03/28 05:15:41;;;;;;;;;;;-0.50;99.90;;;;;;5055066;28;19912;-75
2023/03/28 05:18:06;;;;;;;;;;;-0.50;99.90;;;;;;5055169;28;19947;-75
2023/03/28 05:20:35;;;;;;;;;;;-0.40;99.90;;;;;;5037172;28;19911;-75
2023/03/28 05:23:01;;;;;;;;;;;-0.40;99.90;;;;;;5037067;28;19916;-75
2023/03/28 05:25:27;;;;;;;;;;;-0.40;99.90;;;;;;5054872;28;20306;-75
2023/03/28 05:27:52;;;;;;;;;;;-0.40;99.90;;;;;;5036788;28;20380;-75
2023/03/28 05:30:18;;;;;;;;;;;-0.40;99.90;;;;;;5054960;28;19905;-76
2023/03/28 05:32:43;;;;;;;;;;;-0.40;99.90;;;;;;5036599;28;20374;-75
2023/03/28 05:35:10;;;;;;;;;;;-0.70;99.90;;;;;;5054758;28;19954;-75
2023/03/28 05:37:36;;;;;;;;;;;-0.40;99.90;;;;;;5054460;28;20447;-75
2023/03/28 05:40:09;;;;;;;;;;;-0.40;99.90;;;;;;5036310;28;19911;-75
2023/03/28 05:42:35;;;;;;;;;;;-0.50;99.90;;;;;;5054449;28;19917;-75
2023/03/28 05:45:02;;;;;;;;;;;-0.30;99.90;;;;;;5036489;28;20418;-75
2023/03/28 05:47:27;;;;;;;;;;;-0.30;99.90;;;;;;5054222;28;19905;-75
2023/03/28 05:49:53;;;;;;;;;;;-0.20;99.90;;;;;;5054607;28;19927;-75
2023/03/28 05:52:18;;;;;;;;;;;-0.20;99.90;;;;;;5036700;28;19912;-75
2023/03/28 05:54:44;;;;;;;;;;;-0.20;99.90;;;;;;5054692;28;19911;-75
2023/03/28 05:57:10;;;;;;;;;;;-0.10;99.90;;;;;;5036555;28;19938;-75
2023/03/28 05:59:39;;;;;;;;;;;-0.10;99.90;;;;;;5036648;28;20409;-75
2023/03/28 06:02:06;;;;;;;;;;;0.00;99.90;;;;;;5054328;28;19909;-76
2023/03/28 06:04:35;;;;;;;;;;;2.00;99.90;;;;;;5054267;28;19909;-75
2023/03/28 06:07:00;;;;;;;;;;;0.10;99.90;;;;;;5036661;28;19909;-75
2023/03/28 06:09:30;;;;;;;;;;;0.20;99.90;;;;;;5055033;28;19915;-75
2023/03/28 06:11:56;;;;;;;;;;;0.40;99.90;;;;;;5036481;28;20352;-75
2023/03/28 06:14:21;;;;;;;;;;;0.40;99.90;;;;;;5054240;28;19959;-75
2023/03/28 06:16:47;;;;;;;;;;;0.50;99.90;;;;;;5053908;28;19999;-75
2023/03/28 06:19:12;;;;;;;;;;;0.60;99.90;;;;;;5036606;28;19964;-75
2023/03/28 06:21:38;;;;;;;;;;;0.70;99.90;;;;;;5054529;28;20360;-75
2023/03/28 06:24:03;;;;;;;;;;;0.80;99.90;;;;;;5054719;28;20469;-75
2023/03/28 06:26:29;;;;;;;;;;;1.00;99.90;;;;;;5054246;28;19905;-76
2023/03/28 06:28:54;;;;;;;;;;;1.10;99.90;;;;;;5053650;28;19931;-75
2023/03/28 06:31:20;;;;;;;;;;;1.20;99.90;;;;;;5036406;28;20004;-75
2023/03/28 06:33:45;;;;;;;;;;;1.40;99.90;;;;;;5054769;28;19908;-75
2023/03/28 06:36:11;;;;;;;;;;;1.50;99.90;;;;;;5054689;28;19905;-75
2023/03/28 06:38:36;;;;;;;;;;;1.70;99.90;;;;;;5054095;28;20299;-75
2023/03/28 06:41:02;;;;;;;;;;;1.90;99.90;;;;;;5053964;28;19905;-75
2023/03/28 06:43:29;;;;;;;;;;;2.00;99.90;;;;;;5036234;28;19909;-75
2023/03/28 06:45:55;;;;;;;;;;;2.30;99.90;;;;;;5054429;28;19932;-75
2023/03/28 06:48:21;;;;;;;;;;;2.40;99.90;;;;;;5053487;28;20279;-75
2023/03/28 06:50:49;;;;;;;;;;;2.50;99.90;;;;;;5053777;28;19928;-75
2023/03/28 06:53:15;;;;;;;;;;;2.50;99.90;;;;;;5053558;28;19904;-75
2023/03/28 06:55:41;;;;;;;;;;;2.60;99.90;;;;;;5035740;28;19909;-75
2023/03/28 06:58:06;;;;;;;;;;;2.60;99.90;;;;;;5036825;28;19909;-75
2023/03/28 07:00:32;;;;;;;;;;;2.60;99.90;;;;;;5058074;28;19905;-76
2023/03/28 07:02:58;;;;;;;;;;;2.60;99.90;;;;;;5057339;28;19915;-76
2023/03/28 07:05:23;;;;;;;;;;;2.60;99.90;;;;;;5039275;28;20007;-75
2023/03/28 07:07:49;;;;;;;;;;;2.60;99.90;;;;;;5057199;28;19904;-75
2023/03/28 07:10:14;;;;;;;;;;;2.70;99.90;;;;;;5039243;28;19944;-75
2023/03/28 07:12:40;;;;;;;;;;;2.80;99.90;;;;;;5039236;28;20367;-75
2023/03/28 07:15:05;;;;;;;;;;;2.80;99.90;;;;;;5057184;28;20306;-75
2023/03/28 07:17:31;;;;;;;;;;;2.90;99.90;;;;;;5039130;28;19905;-75
2023/03/28 07:19:57;;;;;;;;;;;3.10;99.90;;;;;;5057073;28;19908;-75
2023/03/28 07:22:22;;;;;;;;;;;3.10;99.90;;;;;;5039057;28;19908;-75
2023/03/28 07:24:48;;;;;;;;;;;3.20;99.90;;;;;;5056630;28;20409;-75
2023/03/28 07:27:13;;;;;;;;;;;3.20;99.90;;;;;;5056673;28;19912;-75
2023/03/28 07:29:39;;;;;;;;;;;3.30;99.90;;;;;;5056732;28;19912;-75
2023/03/28 07:32:04;;;;;;;;;;;3.40;99.90;;;;;;5038880;28;20050;-75
2023/03/28 07:34:30;;;;;;;;;;;3.60;99.90;;;;;;5039040;28;20348;-75
2023/03/28 07:36:55;;;;;;;;;;;3.80;99.90;;;;;;5056665;28;19909;-75
2023/03/28 07:39:24;;;;;;;;;;;3.90;99.90;;;;;;5038764;28;19909;-75
2023/03/28 07:41:49;;;;;;;;;;;4.00;99.90;;;;;;5056497;28;19909;-75
2023/03/28 07:44:15;;;;;;;;;;;4.20;99.90;;;;;;5056472;28;20390;-75
2023/03/28 07:46:41;;;;;;;;;;;4.40;99.90;;;;;;5056258;28;19912;-75
2023/03/28 07:49:09;;;;;;;;;;;4.50;99.90;;;;;;5038686;28;19905;-75
2023/03/28 07:51:35;;;;;;;;;;;4.70;99.90;;;;;;5056629;28;19904;-75
2023/03/28 07:54:00;;;;;;;;;;;4.90;99.90;;;;;;5056576;28;20394;-75
2023/03/28 07:56:26;;;;;;;;;;;5.00;99.90;;;;;;5056355;28;19909;-75
2023/03/28 07:58:52;;;;;;;;;;;5.20;99.90;;;;;;5038477;28;19958;-75
2023/03/28 08:01:18;;;;;;;;;;;5.40;99.90;;;;;;5056477;28;20379;-75
2023/03/28 08:03:43;;;;;;;;;;;5.60;99.90;;;;;;5038316;28;19991;-75
2023/03/28 08:06:12;;;;;;;;;;;5.80;99.90;;;;;;5055973;28;20394;-75
2023/03/28 08:08:40;;;;;;;;;;;6.00;99.90;;;;;;5038914;28;20356;-75
2023/03/28 08:11:06;;;;;;;;;;;6.10;99.90;;;;;;5056200;28;20272;-75
2023/03/28 08:13:31;;;;;;;;;;;6.20;99.90;;;;;;5056109;28;19912;-74
2023/03/28 08:15:57;;;;;;;;;;;6.50;99.90;;;;;;5038278;28;19905;-75
2023/03/28 08:18:24;;;;;;;;;;;6.30;99.90;;;;;;5056061;28;19905;-74
2023/03/28 08:20:56;;;;;;;;;;;6.30;99.90;;;;;;5055975;28;19955;-75
2023/03/28 08:23:22;;;;;;;;;;;6.30;99.90;;;;;;5038741;28;19916;-74
2023/03/28 08:25:47;;;;;;;;;;;6.70;99.90;;;;;;5038128;28;20364;-75
2023/03/28 08:28:13;;;;;;;;;;;6.50;99.90;;;;;;5037997;28;19904;-74
2023/03/28 08:30:38;;;;;;;;;;;6.60;99.90;;;;;;5055739;28;20113;-75
2023/03/28 08:33:04;;;;;;;;;;;6.60;99.90;;;;;;5055706;28;19904;-75
2023/03/28 08:35:30;;;;;;;;;;;6.80;99.90;;;;;;5055549;28;19943;-75
2023/03/28 08:37:55;;;;;;;;;;;6.80;99.90;;;;;;5055540;28;19954;-75
2023/03/28 08:40:23;;;;;;;;;;;7.00;99.90;;;;;;5055401;28;20418;-75
2023/03/28 08:43:04;;;;;;;;;;;7.10;99.90;;;;;;5037739;28;19909;-75
2023/03/28 08:45:38;;;;;;;;;;;7.20;99.90;;;;;;5055393;28;20437;-75
2023/03/28 08:48:13;;;;;;;;;;;7.20;99.90;;;;;;5056115;28;19999;-75
2023/03/28 08:50:42;;;;;;;;;;;7.30;99.90;;;;;;5038187;28;19905;-75
2023/03/28 08:53:15;;;;;;;;;;;7.40;99.90;;;;;;5055349;28;19908;-75
2023/03/28 08:55:41;;;;;;;;;;;7.30;99.90;;;;;;5055309;28;19905;-76
2023/03/28 08:58:13;;;;;;;;;;;8.30;99.90;;;;;;5055092;28;20337;-76
2023/03/28 09:00:39;;;;;;;;;;;7.60;99.90;;;;;;5037206;28;20360;-76
2023/03/28 09:03:11;;;;;;;;;;;7.50;99.90;;;;;;5054906;28;19916;-76
2023/03/28 09:05:43;;;;;;;;;;;7.60;99.90;;;;;;5054802;28;19913;-76
2023/03/28 09:08:38;;;;;;;;;;;7.40;99.90;;;;;;5054853;28;20383;-76
2023/03/28 09:11:24;;;;;;;;;;;7.40;99.90;;;;;;5046055;28;19908;-76
2023/03/28 09:13:50;;;;;;;;;;;7.30;99.90;;;;;;5017307;28;19909;-76
2023/03/28 09:16:48;;;;;;;;;;;7.40;99.90;;;;;;5054849;28;20367;-76
2023/03/28 09:19:36;;;;;;;;;;;7.40;99.90;;;;;;5014908;28;19955;-75
2023/03/28 09:22:20;;;;;;;;;;;7.40;99.90;;;;;;5036376;28;19947;-76
2023/03/28 09:24:58;;;;;;;;;;;7.40;99.90;;;;;;5054940;28;20279;-76
2023/03/28 09:27:24;;;;;;;;;;;7.40;99.90;;;;;;5055154;28;19905;-74
2023/03/28 09:29:50;;;;;;;;;;;7.40;99.90;;;;;;5036827;28;19905;-74
2023/03/28 09:32:28;;;;;;;;;;;7.80;99.90;;;;;;5054292;28;20372;-74
2023/03/28 09:34:53;;;;;;;;;;;7.50;99.90;;;;;;5054631;28;19940;-75
2023/03/28 09:37:28;;;;;;;;;;;7.60;99.90;;;;;;5036416;28;19994;-75
2023/03/28 09:39:55;;;;;;;;;;;7.70;99.90;;;;;;5054648;28;19912;-75
2023/03/28 09:42:35;;;;;;;;;;;7.80;99.90;;;;;;5054301;28;19909;-75
2023/03/28 09:45:03;;;;;;;;;;;7.80;99.90;;;;;;5054561;28;19908;-75
2023/03/28 09:47:29;;;;;;;;;;;7.80;99.90;;;;;;5054367;28;19905;-75
2023/03/28 09:49:55;;;;;;;;;;;7.80;99.90;;;;;;5036585;28;19992;-75
2023/03/28 09:52:20;;;;;;;;;;;7.70;99.90;;;;;;5053949;28;20368;-75
2023/03/28 09:54:47;;;;;;;;;;;7.80;99.90;;;;;;5054814;28;20007;-75
2023/03/28 09:57:12;;;;;;;;;;;7.80;99.90;;;;;;5054333;28;19904;-75
2023/03/28 09:59:38;;;;;;;;;;;7.90;99.90;;;;;;5054235;28;19911;-75
2023/03/28 10:02:04;;;;;;;;;;;7.90;99.90;;;;;;5036405;28;19915;-75
2023/03/28 10:04:31;;;;;;;;;;;7.90;99.90;;;;;;5054272;28;19916;-75
2023/03/28 10:07:09;;;;;;;;;;;7.90;99.90;;;;;;5036042;28;20384;-75
2023/03/28 10:10:02;;;;;;;;;;;7.90;99.90;;;;;;5052608;28;19904;-75
2023/03/28 10:12:32;;;;;;;;;;;8.00;99.90;;;;;;5020315;28;19905;-74
2023/03/28 10:14:58;;;;;;;;;;;8.00;99.90;;;;;;5053623;28;20315;-75
2023/03/28 10:17:28;;;;;;;;;;;8.10;99.90;;;;;;5034358;28;20003;-74
2023/03/28 10:19:58;;;;;;;;;;;8.10;99.90;;;;;;5053646;28;19912;-74
2023/03/28 10:22:25;;;;;;;;;;;7.90;99.90;;;;;;5036489;28;20279;-74
2023/03/28 10:24:51;;;;;;;;;;;8.00;99.90;;;;;;5055459;28;19946;-74
2023/03/28 10:27:22;;;;;;;;;;;8.10;99.90;;;;;;5036482;28;20253;-75
2023/03/28 10:29:49;;;;;;;;;;;8.20;99.90;;;;;;5055094;28;19970;-75
2023/03/28 10:32:23;;;;;;;;;;;8.20;99.90;;;;;;5036635;28;19950;-75
2023/03/28 10:35:02;;;;;;;;;;;8.20;99.90;;;;;;5058854;28;19983;-75
2023/03/28 10:37:31;;;;;;;;;;;8.10;99.90;;;;;;5058486;28;20418;-74
2023/03/28 10:40:23;;;;;;;;;;;8.10;99.90;;;;;;5040399;28;20425;-74
2023/03/28 10:42:49;;;;;;;;;;;8.20;99.90;;;;;;5038612;28;19915;-74
2023/03/28 10:45:22;;;;;;;;;;;8.30;99.70;;;;;;5058064;28;19908;-74
2023/03/28 10:47:49;;;;;;;;;;;8.40;99.90;;;;;;5058514;28;19904;-75
2023/03/28 10:50:26;;;;;;;;;;;9.20;99.20;;;;;;5040716;28;20402;-74
2023/03/28 10:53:09;;;;;;;;;;;8.60;97.80;;;;;;5058643;28;19905;-75
2023/03/28 10:55:40;;;;;;;;;;;8.70;93.50;;;;;;5058841;28;19950;-74
2023/03/28 10:58:14;;;;;;;;;;;8.70;93.30;;;;;;5058474;28;20450;-74
2023/03/28 11:00:46;;;;;;;;;;;8.80;93.80;;;;;;5058615;28;19939;-75
2023/03/28 11:03:17;;;;;;;;;;;8.90;95.50;;;;;;5040530;28;20352;-75
2023/03/28 11:05:43;;;;;;;;;;;9.10;95.40;;;;;;5058623;28;19912;-74
2023/03/28 11:08:25;;;;;;;;;;;9.20;94.10;;;;;;5058398;28;19904;-75
2023/03/28 11:11:10;;;;;;;;;;;9.40;93.80;;;;;;5040083;28;19905;-75
2023/03/28 11:13:41;;;;;;;;;;;9.40;92.70;;;;;;5039582;28;19950;-75
2023/03/28 11:16:15;;;;;;;;;;;9.40;93.40;;;;;;5057952;28;19908;-74
2023/03/28 11:18:58;;;;;;;;;;;9.30;92.80;;;;;;5039504;28;19912;-75
2023/03/28 11:21:32;;;;;;;;;;;9.30;94.70;;;;;;5057257;28;19966;-75
2023/03/28 11:23:58;;;;;;;;;;;9.40;95.40;;;;;;5057603;28;19909;-74
2023/03/28 11:26:23;;;;;;;;;;;9.40;94.10;;;;;;5057086;28;19928;-75
2023/03/28 11:29:12;;;;;;;;;;;9.30;94.70;;;;;;5039210;28;19928;-75
2023/03/28 11:31:44;;;;;;;;;;;9.30;93.20;;;;;;5039170;28;19904;-75
2023/03/28 11:34:12;;;;;;;;;;;9.60;93.60;;;;;;5039141;28;19931;-74
2023/03/28 11:36:47;;;;;;;;;;;9.80;92.00;;;;;;5039616;28;20291;-75
2023/03/28 11:39:21;;;;;;;;;;;10.00;92.50;;;;;;5057916;28;20344;-75
2023/03/28 11:41:48;;;;;;;;;;;10.10;92.70;;;;;;5057355;28;20379;-75
2023/03/28 11:44:27;;;;;;;;;;;10.20;92.20;;;;;;5056410;28;19905;-75
2023/03/28 11:46:58;;;;;;;;;;;10.40;90.50;;;;;;5056347;28;19911;-74
2023/03/28 11:49:35;;;;;;;;;;;10.10;89.60;;;;;;5057495;28;19904;-75
2023/03/28 11:52:20;;;;;;;;;;;10.00;90.60;;;;;;5038760;28;19912;-74
2023/03/28 11:54:48;;;;;;;;;;;10.00;90.40;;;;;;5056601;28;20364;-74
2023/03/28 11:57:20;;;;;;;;;;;9.90;85.70;;;;;;5056407;28;19993;-74
2023/03/28 11:59:52;;;;;;;;;;;9.80;86.50;;;;;;5038664;28;19909;-74
2023/03/28 12:02:18;;;;;;;;;;;9.60;87.70;;;;;;5056383;28;19909;-74
2023/03/28 12:04:49;;;;;;;;;;;9.50;87.80;;;;;;5039662;28;20283;-77
2023/03/28 12:07:20;;;;;;;;;;;9.30;90.40;;;;;;5040104;28;19970;-77
2023/03/28 12:09:49;;;;;;;;;;;9.30;91.20;;;;;;5058307;28;19955;-77
2023/03/28 12:12:17;;;;;;;;;;;9.20;91.20;;;;;;5040526;28;19908;-78
2023/03/28 12:14:42;;;;;;;;;;;9.20;91.10;;;;;;5041443;28;19935;-78
2023/03/28 12:17:14;;;;;;;;;;;9.20;91.90;;;;;;5040577;28;19904;-78
2023/03/28 12:19:40;;;;;;;;;;;9.40;93.00;;;;;;5040792;28;19912;-77
2023/03/28 12:22:08;;;;;;;;;;;9.80;92.00;;;;;;5057503;28;19909;-76
2023/03/28 12:24:59;;;;;;;;;;;9.60;91.30;;;;;;5056850;28;19939;-76
2023/03/28 12:27:37;;;;;;;;;;;9.60;91.60;;;;;;5038689;28;20322;-76
2023/03/28 12:30:19;;;;;;;;;;;9.60;91.70;;;;;;5038553;28;20012;-76
2023/03/28 12:32:48;;;;;;;;;;;9.50;90.10;;;;;;5040236;28;19954;-76
2023/03/28 12:35:16;;;;;;;;;;;9.30;90.20;;;;;;5039167;28;19904;-77
2023/03/28 12:37:51;;;;;;;;;;;9.10;90.30;;;;;;5056601;28;20318;-78
2023/03/28 12:40:22;;;;;;;;;;;8.90;90.20;;;;;;5057349;28;20364;-76
2023/03/28 12:42:49;;;;;;;;;;;8.90;91.20;;;;;;5039453;28;19908;-76
2023/03/28 12:45:37;;;;;;;;;;;9.00;91.40;;;;;;5057610;28;19912;-75
2023/03/28 12:48:06;;;;;;;;;;;9.00;91.30;;;;;;5057474;28;19995;-76
2023/03/28 12:50:49;;;;;;;;;;;9.00;92.00;;;;;;5056659;28;20367;-76
2023/03/28 12:53:16;;;;;;;;;;;9.00;90.50;;;;;;5056271;28;20379;-76
2023/03/28 12:55:45;;;;;;;;;;;9.00;90.50;;;;;;5055242;28;19911;-76
2023/03/28 12:58:20;;;;;;;;;;;8.90;90.70;;;;;;5056035;28;19912;-76
2023/03/28 13:00:55;;;;;;;;;;;8.80;91.30;;;;;;5038322;28;20413;-76
2023/03/28 13:03:31;;;;;;;;;;;8.80;92.20;;;;;;5056467;28;19909;-76
2023/03/28 13:06:01;;;;;;;;;;;8.70;92.20;;;;;;5038046;28;19917;-76
2023/03/28 13:08:27;;;;;;;;;;;8.70;92.60;;;;;;5056135;28;19908;-75
2023/03/28 13:11:04;;;;;;;;;;;8.70;93.00;;;;;;5055123;28;19959;-76
2023/03/28 13:13:39;;;;;;;;;;;8.70;92.90;;;;;;5037312;28;19905;-75
2023/03/28 13:16:11;;;;;;;;;;;8.70;92.80;;;;;;5055922;28;19944;-75
2023/03/28 13:18:44;;;;;;;;;;;8.80;93.90;;;;;;5055733;28;20386;-75
2023/03/28 13:21:09;;;;;;;;;;;8.90;93.30;;;;;;5054962;28;19912;-76
2023/03/28 13:23:43;;;;;;;;;;;8.90;92.80;;;;;;5054908;28;19908;-76
2023/03/28 13:26:09;;;;;;;;;;;8.90;93.00;;;;;;5037249;28;20014;-76
2023/03/28 13:28:38;;;;;;;;;;;9.00;93.20;;;;;;5055378;28;20397;-75
2023/03/28 13:31:05;;;;;;;;;;;9.10;93.80;;;;;;5054658;28;19905;-75
2023/03/28 13:33:32;;;;;;;;;;;9.20;92.10;;;;;;5055450;28;19905;-76
2023/03/28 13:35:57;;;;;;;;;;;10.00;92.70;;;;;;5054665;28;19912;-75
2023/03/28 13:38:25;;;;;;;;;;;9.60;92.40;;;;;;5055145;28;19908;-75
2023/03/28 13:40:53;;;;;;;;;;;9.80;90.50;;;;;;5037398;28;19904;-76
2023/03/28 13:43:21;;;;;;;;;;;10.00;88.50;;;;;;5054720;28;19913;-76
2023/03/28 13:45:48;;;;;;;;;;;10.30;90.30;;;;;;5036237;28;19905;-76
2023/03/28 13:48:15;;;;;;;;;;;10.80;89.20;;;;;;5036863;28;19952;-76
2023/03/28 13:50:41;;;;;;;;;;;11.10;86.50;;;;;;5054582;28;19905;-76
2023/03/28 13:53:07;;;;;;;;;;;11.40;86.20;;;;;;5036319;28;19905;-77
2023/03/28 13:55:32;;;;;;;;;;;11.70;88.40;;;;;;5036889;28;20379;-77
2023/03/28 13:58:00;;;;;;;;;;;11.70;84.80;;;;;;5035949;28;19905;-76
2023/03/28 14:00:25;;;;;;;;;;;11.70;82.20;;;;;;5035964;28;19905;-75
2023/03/28 14:02:52;;;;;;;;;;;11.50;81.40;;;;;;5036040;28;20003;-76
2023/03/28 14:05:19;;;;;;;;;;;11.30;80.50;;;;;;5036002;28;20367;-77
2023/03/28 14:07:45;;;;;;;;;;;11.30;83.50;;;;;;5036165;28;20007;-75
2023/03/28 14:10:27;;;;;;;;;;;11.20;82.10;;;;;;5053872;28;20482;-76
2023/03/28 14:12:53;;;;;;;;;;;11.10;82.40;;;;;;5054026;28;19908;-75
2023/03/28 14:15:21;;;;;;;;;;;10.80;82.90;;;;;;5053984;28;19911;-76
2023/03/28 14:17:48;;;;;;;;;;;10.50;83.10;;;;;;5036339;28;19992;-75
2023/03/28 14:20:15;;;;;;;;;;;10.40;82.90;;;;;;5054165;28;20382;-75
2023/03/28 14:22:43;;;;;;;;;;;10.30;84.20;;;;;;5036188;28;19948;-76
2023/03/28 14:25:11;;;;;;;;;;;10.40;85.30;;;;;;5053669;28;19905;-75
2023/03/28 14:27:38;;;;;;;;;;;10.10;86.00;;;;;;5036148;28;19908;-74
2023/03/28 14:30:18;;;;;;;;;;;10.00;87.30;;;;;;5036157;28;20420;-76
2023/03/28 14:32:58;;;;;;;;;;;10.00;86.60;;;;;;5036223;28;20279;-75
2023/03/28 14:35:28;;;;;;;;;;;9.90;86.50;;;;;;5054037;28;19999;-76
2023/03/28 14:38:01;;;;;;;;;;;9.70;88.80;;;;;;5053672;28;19927;-76